Time;durP1;ratioP1;P1;durP2;ratioP2;P2;SDS_P1;SDS_P2;PMS_P1;PMS_P2;Temp;Humidity;BMP_temperature;BMP_pressure;BME280_temperature;BME280_humidity;BME280_pressure;Samples;Min_cycle;Max_cycle;Signal;HPM_P1;HPM_P2
2022/07/04 00:00:24;;;;;;;5.92;5.00;;;;;;;17.65;67.54;101034.98;1784348;78;20939;-90
2022/07/04 00:02:53;;;;;;;10.88;5.08;;;;;;;17.63;67.76;101037.41;1783051;78;20848;-92
2022/07/04 00:05:21;;;;;;;7.25;5.25;;;;;;;17.59;68.07;101037.68;1781300;80;20832;-90
2022/07/04 00:07:50;;;;;;;6.10;4.92;;;;;;;17.54;68.30;101033.25;1781492;80;21532;-90
2022/07/04 00:10:18;;;;;;;10.80;4.92;;;;;;;17.49;68.64;101032.77;1781642;79;20963;-91
2022/07/04 00:12:47;;;;;;;5.97;5.00;;;;;;;17.44;68.98;101032.31;1780962;79;20935;-89
2022/07/04 00:15:16;;;;;;;8.08;4.80;;;;;;;17.37;69.32;101028.00;1781062;80;21006;-88
2022/07/04 00:17:43;;;;;;;7.80;5.08;;;;;;;17.33;69.60;101030.54;1783941;78;20954;-89
2022/07/04 00:20:10;;;;;;;8.38;4.50;;;;;;;17.30;69.61;101037.43;1783890;77;21109;-89
2022/07/04 00:22:38;;;;;;;4.75;4.20;;;;;;;17.28;69.60;101034.55;1783186;79;21001;-90
2022/07/04 00:25:06;;;;;;;5.92;3.95;;;;;;;17.25;69.54;101034.29;1782955;80;20981;-89
2022/07/04 00:27:33;;;;;;;5.83;4.50;;;;;;;17.25;69.33;101036.11;1781540;80;20880;-90
2022/07/04 00:30:00;;;;;;;7.40;5.00;;;;;;;17.23;69.20;101037.58;1781606;79;20868;-88
2022/07/04 00:32:27;;;;;;;6.33;4.62;;;;;;;17.22;69.12;101039.02;1782529;80;21161;-89
2022/07/04 00:34:54;;;;;;;6.70;4.92;;;;;;;17.20;69.08;101033.84;1781653;80;20840;-90
2022/07/04 00:37:21;;;;;;;11.43;4.53;;;;;;;17.19;69.05;101032.16;1780852;79;20928;-89
2022/07/04 00:39:48;;;;;;;8.58;5.15;;;;;;;17.18;69.04;101033.11;1781018;79;21405;-91
2022/07/04 00:42:15;;;;;;;5.12;4.30;;;;;;;17.19;69.06;101036.14;1780886;80;20951;-89
2022/07/04 00:44:42;;;;;;;5.90;4.70;;;;;;;17.18;69.13;101034.44;1780967;80;21798;-91
2022/07/04 00:47:09;;;;;;;8.85;5.20;;;;;;;17.17;69.17;101038.07;1780775;80;20912;-90
2022/07/04 00:49:36;;;;;;;9.20;5.75;;;;;;;17.15;69.17;101038.67;1780824;80;20959;-89
2022/07/04 00:52:03;;;;;;;6.67;4.92;;;;;;;17.12;69.20;101038.45;1780736;79;20848;-91
2022/07/04 00:54:32;;;;;;;5.97;5.03;;;;;;;17.11;69.28;101041.21;1780939;79;21401;-90
2022/07/04 00:56:59;;;;;;;9.68;5.10;;;;;;;17.08;69.36;101034.84;1781075;80;21133;-92
2022/07/04 00:59:27;;;;;;;8.48;5.15;;;;;;;17.05;69.42;101034.62;1780818;79;20916;-90
2022/07/04 01:01:55;;;;;;;7.78;4.95;;;;;;;17.02;69.54;101044.12;1780866;80;21523;-90
2022/07/04 01:04:22;;;;;;;5.55;3.98;;;;;;;16.99;69.71;101049.67;1781243;80;20924;-90
2022/07/04 01:06:50;;;;;;;7.72;4.83;;;;;;;16.95;70.02;101044.26;1781267;80;20924;-91
2022/07/04 01:09:17;;;;;;;7.05;4.30;;;;;;;16.92;70.25;101042.70;1781348;79;21256;-90
2022/07/04 01:11:44;;;;;;;6.85;4.40;;;;;;;16.89;70.37;101038.12;1780796;79;20832;-90
2022/07/04 01:14:11;;;;;;;5.62;4.62;;;;;;;16.87;70.43;101037.39;1782281;79;20877;-89
2022/07/04 01:16:39;;;;;;;5.25;4.22;;;;;;;16.85;70.45;101039.32;1784101;77;20982;-90
2022/07/04 01:19:06;;;;;;;7.87;4.72;;;;;;;16.82;70.62;101037.77;1784012;80;21083;-90
2022/07/04 01:21:33;;;;;;;5.67;4.58;;;;;;;16.80;70.75;101041.51;1783426;80;21119;-88
2022/07/04 01:24:00;;;;;;;7.37;4.20;;;;;;;16.77;70.88;101036.78;1783810;80;20864;-90
2022/07/04 01:26:28;;;;;;;5.87;4.22;;;;;;;16.76;70.97;101040.86;1782587;80;21365;-91
2022/07/04 01:28:55;;;;;;;6.03;3.67;;;;;;;16.75;71.04;101041.35;1781735;80;21002;-91
2022/07/04 01:31:22;;;;;;;5.85;3.80;;;;;;;16.74;71.01;101044.11;1780950;80;20824;-90
2022/07/04 01:33:50;;;;;;;7.78;4.28;;;;;;;16.72;71.01;101041.61;1781031;80;21935;-91
2022/07/04 01:36:18;;;;;;;7.85;4.25;;;;;;;16.72;70.88;101038.95;1780787;80;20876;-90
2022/07/04 01:38:45;;;;;;;9.18;3.65;;;;;;;16.73;70.87;101041.12;1780771;80;20904;-90
2022/07/04 01:41:11;;;;;;;5.62;4.42;;;;;;;16.72;70.91;101039.45;1780800;80;20873;-91
2022/07/04 01:43:38;;;;;;;5.15;4.65;;;;;;;16.72;70.85;101038.13;1780831;80;20958;-89
2022/07/04 01:46:05;;;;;;;6.60;4.30;;;;;;;16.72;70.79;101036.31;1780987;80;21224;-90
2022/07/04 01:48:32;;;;;;;4.97;3.95;;;;;;;16.71;70.77;101041.72;1781261;80;20836;-91
2022/07/04 01:51:00;;;;;;;7.12;3.95;;;;;;;16.71;70.87;101044.36;1781283;80;20911;-90
2022/07/04 01:53:27;;;;;;;4.62;4.10;;;;;;;16.70;70.94;101046.18;1780883;80;20966;-90
2022/07/04 01:55:54;;;;;;;7.60;4.53;;;;;;;16.67;70.81;101049.05;1780996;79;20865;-89
2022/07/04 01:58:21;;;;;;;5.47;3.92;;;;;;;16.67;70.91;101041.59;1780871;80;21212;-90
2022/07/04 02:03:33;;;;;;;5.20;4.17;;;;;;;16.68;70.97;101042.81;1780905;80;20998;-91
2022/07/04 02:06:00;;;;;;;4.65;4.12;;;;;;;16.70;71.05;101053.29;1780893;79;20884;-90
2022/07/04 02:09:14;;;;;;;14.90;4.15;;;;;;;16.71;71.04;101050.50;1781121;80;20888;-90
2022/07/04 02:10:57;;;;;;;5.87;3.92;;;;;;;16.72;71.02;101050.87;1780576;79;21100;-90
2022/07/04 02:13:24;;;;;;;8.78;4.30;;;;;;;16.75;71.02;101051.95;1784082;78;20853;-91
2022/07/04 02:15:51;;;;;;;5.55;4.42;;;;;;;16.77;70.89;101052.67;1783961;77;20887;-90
2022/07/04 02:18:19;;;;;;;9.85;4.75;;;;;;;16.78;70.94;101053.05;1783809;80;20904;-91
2022/07/04 02:20:46;;;;;;;8.28;3.87;;;;;;;16.80;70.94;101051.61;1783593;80;20899;-90
2022/07/04 02:23:12;;;;;;;5.22;4.50;;;;;;;16.82;71.08;101059.45;1781925;80;21227;-89
2022/07/04 02:25:39;;;;;;;6.87;4.10;;;;;;;16.84;71.11;101052.22;1781064;80;20912;-91
2022/07/04 02:28:06;;;;;;;6.78;4.85;;;;;;;16.84;71.06;101045.59;1781036;80;20978;-91
2022/07/04 02:30:33;;;;;;;5.97;3.92;;;;;;;16.86;71.07;101048.97;1782908;79;20919;-91
2022/07/04 02:33:00;;;;;;;7.22;4.47;;;;;;;16.88;71.18;101047.88;1781722;80;20901;-90
2022/07/04 02:35:27;;;;;;;6.78;4.53;;;;;;;16.93;71.23;101064.73;1781241;80;21212;-91
2022/07/04 02:37:54;;;;;;;5.67;4.42;;;;;;;16.97;71.20;101056.91;1780889;80;20912;-90
2022/07/04 02:40:21;;;;;;;9.18;3.80;;;;;;;17.02;71.15;101059.18;1781056;80;20872;-90
2022/07/04 02:42:48;;;;;;;6.30;4.65;;;;;;;17.03;71.09;101060.84;1780977;79;20908;-90
2022/07/04 02:45:14;;;;;;;9.15;3.72;;;;;;;17.04;71.09;101054.11;1781104;79;21057;-90
2022/07/04 02:47:42;;;;;;;6.30;4.60;;;;;;;17.05;71.14;101062.90;1780878;80;21142;-89
2022/07/04 02:50:09;;;;;;;5.72;4.05;;;;;;;17.08;71.16;101060.02;1781000;79;20861;-90
2022/07/04 02:52:36;;;;;;;8.98;4.08;;;;;;;17.09;71.19;101058.55;1781076;79;20943;-91
2022/07/04 02:55:03;;;;;;;9.83;4.40;;;;;;;17.10;71.31;101061.58;1780975;79;21366;-91
2022/07/04 02:57:30;;;;;;;5.55;3.55;;;;;;;17.13;71.45;101067.95;1781164;79;20836;-91
2022/07/04 02:59:58;;;;;;;8.85;4.30;;;;;;;17.14;71.67;101063.48;1781253;80;21264;-91
2022/07/04 03:02:25;;;;;;;7.33;4.05;;;;;;;17.16;71.99;101076.12;1781396;80;20943;-90
2022/07/04 03:04:52;;;;;;;6.92;3.40;;;;;;;17.18;72.41;101072.38;1782736;79;20898;-89
2022/07/04 03:07:19;;;;;;;6.83;3.80;;;;;;;17.22;72.81;101070.83;1783963;80;20856;-91
2022/07/04 03:09:46;;;;;;;10.50;5.53;;;;;;;17.25;73.10;101071.89;1783874;80;21010;-90
2022/07/04 03:12:12;;;;;;;8.08;4.25;;;;;;;17.29;73.31;101072.01;1784290;78;21213;-90
2022/07/04 03:14:39;;;;;;;13.48;4.12;;;;;;;17.31;73.46;101070.91;1783944;77;20903;-89
2022/07/04 03:17:06;;;;;;;13.95;4.37;;;;;;;17.36;73.55;101068.75;1783834;80;20964;-91
2022/07/04 03:19:33;;;;;;;8.90;4.25;;;;;;;17.40;73.63;101070.16;1783319;80;20853;-92
2022/07/04 03:22:00;;;;;;;9.88;4.15;;;;;;;17.46;73.69;101072.81;1781079;80;21330;-92
2022/07/04 03:24:27;;;;;;;10.50;5.85;;;;;;;17.51;73.74;101073.27;1786289;80;21123;-92
2022/07/04 03:26:54;;;;;;;13.22;5.62;;;;;;;17.57;73.76;101066.63;1787452;80;20852;-88
2022/07/04 03:29:20;;;;;;;11.93;4.90;;;;;;;17.64;73.75;101070.45;1788107;80;20903;-88
2022/07/04 03:31:49;;;;;;;13.00;5.45;;;;;;;17.70;73.70;101069.95;1787320;80;20979;-90
2022/07/04 03:34:16;;;;;;;11.03;4.83;;;;;;;17.78;73.71;101071.45;1786941;80;20998;-90
2022/07/04 03:36:43;;;;;;;9.63;6.70;;;;;;;17.86;73.66;101076.17;1786839;80;21191;-89
2022/07/04 03:39:10;;;;;;;21.45;14.13;;;;;;;17.94;73.66;101072.41;1786795;80;20918;-91
2022/07/04 03:41:37;;;;;;;17.10;11.73;;;;;;;18.04;73.58;101078.27;1786799;80;21025;-91
2022/07/04 03:44:04;;;;;;;28.05;18.32;;;;;;;18.12;73.56;101075.31;1786987;80;20927;-93
2022/07/04 03:46:34;;;;;;;26.42;12.00;;;;;;;18.22;73.49;101079.34;1786977;80;20883;-88
2022/07/04 03:49:02;;;;;;;26.27;12.20;;;;;;;18.32;73.43;101074.08;1787809;80;21037;-91
2022/07/04 03:51:29;;;;;;;27.65;13.80;;;;;;;18.42;73.29;101067.86;1787898;80;20883;-90
2022/07/04 03:53:55;;;;;;;23.10;14.03;;;;;;;18.53;73.11;101070.92;1789045;79;20884;-87
2022/07/04 03:56:22;;;;;;;25.37;14.45;;;;;;;18.63;72.89;101067.83;1789570;80;20848;-89
2022/07/04 03:58:49;;;;;;;22.52;13.18;;;;;;;18.76;72.85;101069.40;1788400;80;20876;-91
2022/07/04 04:01:17;;;;;;;19.95;11.22;;;;;;;18.88;72.65;101065.72;1787109;79;21806;-92
2022/07/04 04:06:30;;;;;;;17.15;7.83;;;;;;;19.14;72.03;101059.89;1787345;80;20950;-91
2022/07/04 04:08:57;;;;;;;17.12;7.70;;;;;;;19.28;71.61;101063.50;1789767;77;20994;-90
2022/07/04 04:11:24;;;;;;;13.45;8.33;;;;;;;19.43;71.25;101066.58;1790259;78;20868;-91
2022/07/04 04:13:51;;;;;;;13.90;7.97;;;;;;;19.58;70.78;101064.35;1789877;80;21109;-91
2022/07/04 04:16:18;;;;;;;11.97;7.53;;;;;;;19.85;70.44;101063.20;1789151;80;20884;-92
2022/07/04 04:18:45;;;;;;;12.33;7.67;;;;;;;20.31;69.66;101063.88;1787610;80;21006;-92
2022/07/04 04:21:13;;;;;;;12.00;7.55;;;;;;;20.85;68.18;101057.81;1787231;80;20881;-92
2022/07/04 04:23:40;;;;;;;20.97;8.23;;;;;;;21.50;66.34;101054.20;1786966;80;20825;-92
2022/07/04 04:26:07;;;;;;;8.55;5.22;;;;;;;22.18;64.37;101058.88;1787587;79;21840;-91
2022/07/04 04:28:36;;;;;;;9.83;4.80;;;;;;;22.86;62.04;101057.27;1787972;80;20966;-92
2022/07/04 04:31:02;;;;;;;9.18;4.80;;;;;;;23.55;59.01;101057.44;1787447;79;20836;-93
2022/07/04 04:33:29;;;;;;;8.73;3.95;;;;;;;24.22;57.23;101062.29;1786856;79;20876;-93
2022/07/04 04:35:56;;;;;;;4.58;3.98;;;;;;;24.77;55.37;101051.58;1787070;80;20958;-91
2022/07/04 04:38:23;;;;;;;3.65;3.00;;;;;;;25.26;53.70;101051.84;1787561;79;21276;-92
2022/07/04 04:40:50;;;;;;;4.70;3.25;;;;;;;25.76;52.26;101048.27;1786639;80;21337;-91
2022/07/04 04:43:17;;;;;;;7.92;3.10;;;;;;;26.29;51.02;101051.81;1787088;79;21401;-92
2022/07/04 04:45:44;;;;;;;4.55;3.55;;;;;;;26.77;49.75;101053.64;1787361;80;20848;-91
2022/07/04 04:48:11;;;;;;;3.72;3.02;;;;;;;27.21;48.44;101051.38;1787083;79;20911;-92
2022/07/04 04:50:38;;;;;;;4.83;3.22;;;;;;;27.67;47.24;101046.93;1786917;80;21114;-92
2022/07/04 04:53:05;;;;;;;6.62;3.10;;;;;;;28.09;46.25;101050.60;1787280;80;20896;-91
2022/07/04 04:55:32;;;;;;;8.35;3.12;;;;;;;28.46;45.13;101048.55;1786960;80;21349;-89
2022/07/04 04:57:59;;;;;;;3.40;3.10;;;;;;;28.80;44.13;101039.29;1786865;80;20892;-93
2022/07/04 05:00:26;;;;;;;3.33;2.65;;;;;;;29.11;43.14;101039.61;1787203;79;20950;-92
2022/07/04 05:02:54;;;;;;;4.28;2.90;;;;;;;29.44;42.37;101044.78;1789042;79;21255;-91
2022/07/04 05:05:22;;;;;;;2.67;2.30;;;;;;;29.75;41.79;101038.26;1788660;80;20876;-91
2022/07/04 05:07:48;;;;;;;3.05;2.75;;;;;;;30.05;40.98;101034.27;1790078;78;20958;-91
2022/07/04 05:10:15;;;;;;;5.97;2.52;;;;;;;30.28;40.30;101036.03;1789893;80;21434;-92
2022/07/04 05:12:46;;;;;;;4.75;2.55;;;;;;;30.53;39.93;101040.21;1789154;80;20915;-92
2022/07/04 05:15:13;;;;;;;3.77;2.25;;;;;;;30.82;39.52;101044.78;1789790;80;21331;-93
2022/07/04 05:17:40;;;;;;;4.97;2.30;;;;;;;31.08;39.02;101045.20;1786934;80;21535;-93
2022/07/04 05:20:08;;;;;;;4.40;2.35;;;;;;;31.31;38.59;101041.91;1787122;80;20920;-92
2022/07/04 05:22:35;;;;;;;6.78;2.80;;;;;;;31.56;38.10;101044.67;1787106;80;20880;-91
2022/07/04 05:25:02;;;;;;;9.18;2.95;;;;;;;31.75;37.39;101040.14;1787049;80;20963;-92
2022/07/04 05:27:30;;;;;;;5.97;2.65;;;;;;;31.95;37.10;101044.53;1787019;80;21145;-92
2022/07/04 05:29:58;;;;;;;8.23;2.90;;;;;;;32.19;36.90;101038.80;1786755;80;20880;-92
2022/07/04 05:32:26;;;;;;;10.75;3.25;;;;;;;32.51;36.30;101035.41;1786839;80;20848;-92
2022/07/04 05:34:53;;;;;;;3.42;2.33;;;;;;;32.77;35.73;101033.43;1786755;80;20919;-93
2022/07/04 05:37:20;;;;;;;6.25;2.92;;;;;;;32.96;35.27;101034.23;1786930;80;20872;-90
2022/07/04 05:39:47;;;;;;;6.37;3.62;;;;;;;33.16;34.78;101028.54;1786869;80;21256;-92
2022/07/04 05:42:14;;;;;;;4.62;2.60;;;;;;;33.38;34.39;101031.55;1786732;79;20903;-92
2022/07/04 05:44:41;;;;;;;7.37;2.77;;;;;;;33.61;34.06;101027.52;1787073;80;21329;-92
2022/07/04 05:47:08;;;;;;;5.75;2.55;;;;;;;33.87;33.80;101027.31;1787035;80;20927;-91
2022/07/04 05:49:36;;;;;;;8.98;3.58;;;;;;;34.12;33.65;101024.34;1787230;80;20962;-92
2022/07/04 05:52:03;;;;;;;7.75;2.60;;;;;;;34.40;33.11;101018.15;1787135;79;21297;-91
2022/07/04 05:54:30;;;;;;;19.27;3.40;;;;;;;34.61;33.14;101016.11;1786936;80;21349;-91
2022/07/04 05:56:57;;;;;;;18.23;12.15;;;;;;;34.80;32.73;101015.97;1787113;79;21564;-91
2022/07/04 05:59:24;;;;;;;9.45;3.00;;;;;;;34.99;32.32;101005.66;1787426;80;21362;-92
2022/07/04 06:01:51;;;;;;;11.15;3.50;;;;;;;35.05;32.25;101010.14;1787680;80;20911;-91
2022/07/04 06:04:18;;;;;;;6.25;2.90;;;;;;;35.16;31.97;101010.64;1789450;79;21714;-91
2022/07/04 06:06:45;;;;;;;10.30;2.95;;;;;;;35.33;31.79;101015.27;1790236;80;21030;-91
2022/07/04 06:09:12;;;;;;;6.85;2.62;;;;;;;35.58;31.36;101014.33;1789849;80;20884;-91
2022/07/04 06:11:39;;;;;;;5.95;2.60;;;;;;;35.85;31.34;101017.76;1789548;80;20986;-91
2022/07/04 06:14:07;;;;;;;8.98;2.87;;;;;;;36.06;30.71;101014.24;1788214;79;20935;-91
2022/07/04 06:16:34;;;;;;;4.08;2.70;;;;;;;36.28;30.16;101016.98;1787366;79;21865;-91
2022/07/04 06:19:00;;;;;;;7.28;3.33;;;;;;;36.49;29.89;101014.52;1787427;80;20863;-90
2022/07/04 06:21:27;;;;;;;4.42;2.67;;;;;;;36.65;29.76;101018.28;1787562;80;20947;-90
2022/07/04 06:23:57;;;;;;;4.75;2.20;;;;;;;36.82;29.61;101019.53;1789886;80;20915;-90
2022/07/04 06:26:23;;;;;;;2.42;1.98;;;;;;;37.02;29.29;101004.72;1789270;80;20903;-91
2022/07/04 06:28:50;;;;;;;9.00;2.95;;;;;;;37.20;28.82;101006.27;1788476;80;21240;-91
2022/07/04 06:31:17;;;;;;;2.50;2.30;;;;;;;37.35;28.73;101008.28;1787745;80;20966;-93
2022/07/04 06:36:30;;;;;;;4.55;2.25;;;;;;;37.67;28.17;101011.58;1788016;80;20871;-92
2022/07/04 06:38:57;;;;;;;4.40;3.17;;;;;;;37.81;27.93;101011.38;1788796;80;21475;-90
2022/07/04 06:41:24;;;;;;;5.03;2.85;;;;;;;37.94;27.86;101007.35;1788199;80;21201;-90
2022/07/04 06:43:50;;;;;;;3.90;2.60;;;;;;;38.02;27.39;101008.25;1787767;80;20864;-91
2022/07/04 06:46:17;;;;;;;4.40;2.85;;;;;;;38.10;27.28;101005.53;1787692;80;20951;-92
2022/07/04 06:48:44;;;;;;;5.35;2.75;;;;;;;38.21;27.19;101001.75;1787452;80;20919;-91
2022/07/04 06:51:11;;;;;;;5.12;2.70;;;;;;;38.35;26.92;101000.17;1787316;79;20903;-91
2022/07/04 06:53:38;;;;;;;12.20;2.77;;;;;;;38.51;26.81;100998.33;1786765;79;21803;-91
2022/07/04 06:56:05;;;;;;;3.83;2.00;;;;;;;38.65;26.05;100997.27;1786855;80;20880;-90
2022/07/04 06:58:32;;;;;;;3.22;2.00;;;;;;;38.77;25.78;100995.63;1788057;80;20908;-89
2022/07/04 07:01:00;;;;;;;2.98;2.10;;;;;;;38.89;25.65;100992.65;1787225;79;20896;-88
2022/07/04 07:03:28;;;;;;;4.75;2.08;;;;;;;38.95;25.47;100991.04;1789554;79;20931;-89
2022/07/04 07:05:56;;;;;;;2.45;2.25;;;;;;;39.03;25.54;100993.77;1787900;79;22040;-88
2022/07/04 07:08:23;;;;;;;5.10;2.17;;;;;;;39.10;25.00;100989.38;1786952;80;21551;-89
2022/07/04 07:10:50;;;;;;;2.98;2.05;;;;;;;39.22;24.79;100989.09;1787316;79;20918;-89
2022/07/04 07:13:17;;;;;;;3.72;2.25;;;;;;;39.35;24.56;100988.02;1787010;79;20884;-90
2022/07/04 07:15:45;;;;;;;4.78;1.87;;;;;;;39.44;24.33;100986.09;1787090;79;20915;-91
2022/07/04 07:18:12;;;;;;;3.98;2.75;;;;;;;39.52;24.09;100989.09;1786900;80;21188;-90
2022/07/04 07:20:39;;;;;;;4.78;1.87;;;;;;;39.60;24.12;100983.61;1786879;80;20923;-89
2022/07/04 07:23:06;;;;;;;6.00;2.00;;;;;;;39.66;24.15;100985.77;1758927;80;20848;-89
2022/07/04 07:25:33;;;;;;;7.60;2.27;;;;;;;39.71;23.64;100992.09;1782790;80;21424;-89
2022/07/04 07:28:00;;;;;;;2.83;2.00;;;;;;;39.82;23.73;100992.86;1781341;80;20908;-90
2022/07/04 07:30:27;;;;;;;2.42;2.15;;;;;;;39.89;23.82;100988.48;1781363;80;21131;-91
2022/07/04 07:32:54;;;;;;;4.03;2.02;;;;;;;39.91;23.52;100999.48;1781924;80;20880;-91
2022/07/04 07:35:21;;;;;;;3.60;2.25;;;;;;;39.97;23.73;100996.96;1781895;79;22587;-91
2022/07/04 07:37:50;;;;;;;2.40;1.87;;;;;;;40.06;23.47;100990.90;1751223;80;20935;-91
2022/07/04 07:40:18;;;;;;;3.40;1.80;;;;;;;40.13;23.36;100984.02;1781841;79;21425;-91
2022/07/04 07:42:47;;;;;;;2.40;2.20;;;;;;;40.19;23.01;100980.11;1781448;79;21164;-92
2022/07/04 07:45:14;;;;;;;4.25;2.50;;;;;;;40.29;22.62;100979.29;1781613;80;20919;-90
2022/07/04 07:47:44;;;;;;;3.75;2.33;;;;;;;40.40;22.28;100982.81;1781221;79;21337;-90
2022/07/04 07:50:13;;;;;;;3.75;3.05;;;;;;;40.47;22.72;100978.38;1780644;80;21330;-92
2022/07/04 07:52:40;;;;;;;2.90;2.22;;;;;;;40.35;22.52;100982.25;1781280;80;20923;-93
2022/07/04 07:55:07;;;;;;;5.55;2.35;;;;;;;40.31;22.58;100977.61;1781678;80;21183;-93
2022/07/04 07:57:35;;;;;;;3.65;2.72;;;;;;;40.37;22.83;100975.92;1782042;80;20840;-94
2022/07/04 08:00:03;;;;;;;2.37;2.17;;;;;;;40.50;22.52;100973.67;1782795;80;20876;-93
2022/07/04 08:05:13;;;;;;;2.92;1.82;;;;;;;40.56;21.95;100978.84;1768010;79;20816;-94
2022/07/04 08:07:40;;;;;;;5.25;2.52;;;;;;;40.64;21.78;100975.22;1784216;78;21140;-94
2022/07/04 08:10:07;;;;;;;7.17;2.40;;;;;;;40.68;21.69;100971.61;1783737;77;20974;-92
2022/07/04 08:12:35;;;;;;;2.35;2.25;;;;;;;40.78;21.23;100974.89;1783930;78;20983;-91
2022/07/04 08:15:03;;;;;;;2.00;1.90;;;;;;;40.80;21.13;100972.65;1783422;78;20884;-93
2022/07/04 08:17:31;;;;;;;5.60;2.55;;;;;;;40.79;21.41;100977.90;1782252;79;20959;-90
2022/07/04 08:19:58;;;;;;;2.30;2.20;;;;;;;40.87;21.89;100971.79;1781781;79;21177;-93
2022/07/04 08:22:25;;;;;;;3.77;2.70;;;;;;;40.83;21.63;100969.91;1781958;80;20919;-93
2022/07/04 08:24:52;;;;;;;2.75;2.50;;;;;;;40.87;21.31;100970.95;1784357;80;20914;-93
2022/07/04 08:27:20;;;;;;;7.72;2.05;;;;;;;40.96;21.28;100969.25;1786837;80;20935;-92
2022/07/04 08:29:47;;;;;;;4.58;2.37;;;;;;;41.06;20.74;100962.83;1787155;79;20986;-92
2022/07/04 08:32:14;;;;;;;5.17;2.60;;;;;;;41.16;20.68;100964.15;1787347;79;21226;-91
2022/07/04 08:34:42;;;;;;;5.80;2.98;;;;;;;41.25;21.35;100958.28;1787440;80;20903;-92
2022/07/04 08:37:09;;;;;;;2.72;1.98;;;;;;;41.25;20.70;100957.47;1787572;80;20941;-93
2022/07/04 08:39:37;;;;;;;2.20;2.02;;;;;;;41.29;20.52;100953.00;1787718;79;20923;-93
2022/07/04 08:42:07;;;;;;;4.05;2.00;;;;;;;41.34;20.27;100954.34;1787408;80;21338;-94
2022/07/04 08:44:39;;;;;;;3.85;2.25;;;;;;;41.35;20.25;100954.59;1787313;80;21768;-94
2022/07/04 08:47:09;;;;;;;3.17;1.80;;;;;;;41.37;20.71;100952.37;1787279;80;20900;-93
2022/07/04 08:49:36;;;;;;;2.22;2.08;;;;;;;41.42;20.66;100943.52;1787604;80;21018;-94
2022/07/04 08:52:05;;;;;;;3.50;2.45;;;;;;;41.47;20.30;100936.29;1787581;80;21341;-94
2022/07/04 09:00:05;;;;;;;6.87;2.60;;;;;;;41.62;19.75;100934.23;1789978;78;20959;-93
2022/07/04 09:02:33;;;;;;;3.58;1.85;;;;;;;41.68;19.62;100932.23;1789988;80;20875;-92
2022/07/04 09:05:00;;;;;;;5.53;2.10;;;;;;;41.80;19.57;100935.93;1761137;80;20935;-91
2022/07/04 09:07:32;;;;;;;2.33;2.02;;;;;;;41.89;19.30;100934.72;1787585;80;21734;-93
2022/07/04 09:10:00;;;;;;;2.33;2.02;;;;;;;41.86;19.37;100938.08;1787295;79;21141;-92
2022/07/04 09:12:26;;;;;;;2.70;2.50;;;;;;;41.81;19.69;100938.40;1787189;79;20911;-92
2022/07/04 09:14:53;;;;;;;3.75;2.50;;;;;;;41.73;19.71;100935.47;1787324;79;21338;-90
2022/07/04 09:17:21;;;;;;;3.12;2.92;;;;;;;41.62;19.56;100934.23;1788042;79;20992;-89
2022/07/04 09:20:19;;;;;;;2.50;2.35;;;;;;;41.44;19.77;100929.44;1789376;80;20938;-92
2022/07/04 09:22:47;;;;;;;2.22;2.00;;;;;;;41.39;20.11;100931.69;1789177;78;21532;-94
2022/07/04 09:25:14;;;;;;;2.22;2.05;;;;;;;41.25;20.09;100932.69;1785090;79;21005;-92
2022/07/04 09:27:48;;;;;;;2.67;2.47;;;;;;;41.11;20.20;100940.75;1781685;80;20876;-92
2022/07/04 09:30:18;;;;;;;6.47;2.55;;;;;;;41.01;20.11;100944.43;1782080;80;20879;-91
2022/07/04 09:32:50;;;;;;;3.65;2.00;;;;;;;40.89;20.28;100942.06;1783390;80;20931;-92
2022/07/04 09:35:20;;;;;;;6.60;2.42;;;;;;;40.86;20.04;100948.69;1783823;80;21126;-92
2022/07/04 09:40:21;;;;;;;3.52;2.70;;;;;;;40.74;19.73;100938.87;1855045;77;22179;-91
2022/07/04 09:42:49;;;;;;;1.98;1.87;;;;;;;40.63;20.20;100944.72;1822446;78;20875;-92
2022/07/04 09:45:21;;;;;;;4.08;2.70;;;;;;;40.78;20.12;100930.88;1822525;78;21813;-92
2022/07/04 09:47:48;;;;;;;8.08;2.37;;;;;;;40.83;20.42;100933.58;1822489;78;20920;-91
2022/07/04 09:50:19;;;;;;;2.83;2.47;;;;;;;40.76;20.14;100942.72;1822606;78;20871;-92
2022/07/04 09:53:05;;;;;;;4.60;2.80;;;;;;;40.65;20.29;100943.32;1822725;78;20967;-92
2022/07/04 09:55:34;;;;;;;5.20;2.72;;;;;;;40.65;20.10;100939.20;1822896;78;20895;-90
2022/07/04 09:58:04;;;;;;;2.95;2.50;;;;;;;40.85;20.19;100929.99;1825609;77;21132;-91
2022/07/04 10:00:37;;;;;;;3.02;2.77;;;;;;;41.00;19.99;100926.27;1825716;78;20864;-92
2022/07/04 10:03:20;;;;;;;3.70;2.42;;;;;;;41.09;20.35;100929.21;1824807;78;20992;-92
2022/07/04 10:06:06;;;;;;;3.33;3.12;;;;;;;41.08;19.85;100924.27;1823201;78;20980;-92
2022/07/04 10:08:34;;;;;;;2.50;2.30;;;;;;;41.12;20.02;100918.45;1822917;78;20939;-93
2022/07/04 10:11:03;;;;;;;5.75;2.87;;;;;;;41.20;19.59;100917.87;1823852;78;21279;-89
2022/07/04 10:13:30;;;;;;;2.72;2.08;;;;;;;41.28;19.81;100918.34;1822824;78;20848;-91
2022/07/04 10:15:57;;;;;;;2.42;2.20;;;;;;;41.28;19.96;100909.52;1823019;78;20959;-90
2022/07/04 10:18:24;;;;;;;3.67;2.62;;;;;;;41.30;20.02;100914.17;1823077;78;21002;-90
2022/07/04 10:20:53;;;;;;;4.80;2.52;;;;;;;41.36;19.89;100913.58;1822921;78;21420;-91
2022/07/04 10:23:22;;;;;;;3.22;2.30;;;;;;;41.38;19.53;100907.23;1822767;78;21852;-92
2022/07/04 10:25:51;;;;;;;2.35;2.00;;;;;;;41.40;19.72;100902.22;1822589;78;21401;-93
2022/07/04 10:28:18;;;;;;;9.05;2.92;;;;;;;41.26;19.42;100898.53;1822543;78;20927;-92
2022/07/04 10:30:58;;;;;;;51.85;9.50;;;;;;;41.17;19.86;100890.91;1822163;78;20919;-93
2022/07/04 10:33:29;;;;;;;7.75;2.40;;;;;;;41.16;20.21;100895.34;1822470;78;20876;-94
2022/07/04 10:36:05;;;;;;;4.47;2.47;;;;;;;41.21;20.07;100895.28;1822826;78;21509;-89
2022/07/04 10:38:34;;;;;;;2.92;2.60;;;;;;;41.14;19.54;100889.31;1822614;78;20844;-91
2022/07/04 10:41:07;;;;;;;3.17;1.92;;;;;;;40.99;19.75;100891.62;1822827;78;20911;-92
2022/07/04 10:43:57;;;;;;;3.85;2.37;;;;;;;41.01;19.82;100891.59;1822430;78;20970;-91
2022/07/04 10:46:30;;;;;;;4.50;2.45;;;;;;;40.93;19.84;100890.83;1822425;78;20966;-91
2022/07/04 10:49:02;;;;;;;4.22;2.25;;;;;;;40.84;19.93;100887.63;1822616;78;21204;-93
2022/07/04 10:51:48;;;;;;;2.62;1.95;;;;;;;40.91;20.11;100882.61;1822204;78;21329;-92
2022/07/04 10:54:34;;;;;;;4.53;2.62;;;;;;;40.96;19.78;100882.02;1823857;78;20966;-91
2022/07/04 10:57:14;;;;;;;5.05;2.65;;;;;;;40.96;20.03;100879.83;1818384;77;20935;-94
2022/07/04 10:59:54;;;;;;;7.65;2.25;;;;;;;40.97;20.12;100879.52;1824700;78;21353;-93
2022/07/04 11:02:36;;;;;;;6.90;2.22;;;;;;;40.89;20.60;100873.82;1820874;78;21033;-93
2022/07/04 11:05:10;;;;;;;5.80;2.55;;;;;;;40.71;20.47;100864.36;1823130;78;21341;-93
2022/07/04 11:07:44;;;;;;;2.42;2.33;;;;;;;40.55;20.39;100868.58;1821788;78;20903;-91
2022/07/04 11:13:00;;;;;;;5.85;2.50;;;;;;;40.34;20.24;100863.81;1821906;78;20879;-94
2022/07/04 11:15:36;;;;;;;3.47;2.40;;;;;;;40.32;20.44;100860.52;1821964;78;21798;-94
2022/07/04 11:18:16;;;;;;;3.17;2.33;;;;;;;40.32;20.11;100854.21;1792694;79;21488;-94
2022/07/04 11:20:48;;;;;;;2.52;2.37;;;;;;;40.28;20.18;100853.95;1790460;79;21536;-94
2022/07/04 11:23:19;;;;;;;6.00;3.30;;;;;;;40.13;20.42;100856.77;1792533;79;20995;-94
2022/07/04 11:25:52;;;;;;;2.83;2.62;;;;;;;39.95;20.96;100861.00;1792072;79;21018;-92
2022/07/04 11:28:29;;;;;;;5.33;2.58;;;;;;;39.69;20.89;100856.15;1792211;79;21221;-93
2022/07/04 11:30:59;;;;;;;4.83;2.77;;;;;;;39.30;21.11;100852.71;1792236;79;21015;-92
2022/07/04 11:33:29;;;;;;;4.03;2.95;;;;;;;38.99;21.41;100853.33;1792121;80;20999;-94
2022/07/04 11:36:07;;;;;;;2.87;2.67;;;;;;;38.75;22.06;100845.64;1792447;80;20964;-90
2022/07/04 11:39:04;;;;;;;3.58;3.37;;;;;;;38.46;22.31;100848.08;1792196;79;20904;-90
2022/07/04 11:47:23;;;;;;;5.97;3.25;;;;;;;37.25;23.63;100842.72;1825782;78;21019;-91
2022/07/04 11:49:58;;;;;;;5.95;3.58;;;;;;;36.89;24.23;100839.73;1825759;78;20916;-90
2022/07/04 11:52:34;;;;;;;5.42;3.33;;;;;;;36.63;24.61;100840.07;1825579;78;20865;-91
2022/07/04 11:55:00;;;;;;;5.20;3.52;;;;;;;36.42;24.88;100842.60;1798831;78;21139;-92
2022/07/04 11:57:36;;;;;;;5.08;2.90;;;;;;;36.16;25.28;100842.89;1828214;78;20873;-93